Bel Marin Keyes, California
Current Conditions -  °F | °C
As of 5:35 PM on Wednesday 22 Oct 2014 (Local Time) from KDVO Reporting Station
Clear Clear  
Wind Chill: 72°   Ceiling: Unl
Heat Index: 72°   Visibility: NA
Dew Point: 54°   Wind: 9mph
Humidity: 53%   Direction: 270°W
Pressure: 30.02"   Gusts: NA
Location:  38.0639°N, 122.532°W
Report Text: KDVO 230035Z AUTO 27008KT CLR 22/12 A3002 RMK AO2
Loading
Personal Weather Stations






























Interactive Weather Map
Tropical Storm Tracking
New forecast layout! Learn more

10-Day Weather Forecast

Advertisements
Track Severe Weather on mobile